createdAt,value
2019-02-16T00:00:46.048Z,3.03
2019-02-16T00:03:19.178Z,2.99
2019-02-16T00:05:50.694Z,3.00
2019-02-16T00:08:22.221Z,2.98
2019-02-16T00:10:53.754Z,2.96
2019-02-16T00:13:25.360Z,2.90
2019-02-16T00:15:56.879Z,2.92
2019-02-16T00:18:28.480Z,2.83
2019-02-16T00:21:03.941Z,2.77
2019-02-16T00:23:33.315Z,2.78
2019-02-16T00:26:04.930Z,2.81
2019-02-16T00:28:36.443Z,2.65
2019-02-16T00:31:07.971Z,2.58
2019-02-16T00:33:39.493Z,2.62
2019-02-16T00:36:11.085Z,2.68
2019-02-16T00:38:42.657Z,2.71
2019-02-16T00:41:15.281Z,2.68
2019-02-16T00:43:46.835Z,2.72
2019-02-16T00:46:18.507Z,2.76
2019-02-16T00:48:50.054Z,2.80
2019-02-16T00:51:21.634Z,2.59
2019-02-16T00:53:53.246Z,2.58
2019-02-16T00:56:24.775Z,2.65
2019-02-16T00:58:56.406Z,2.63
2019-02-16T01:01:28.078Z,2.62
2019-02-16T01:03:59.601Z,2.57
2019-02-16T01:06:31.149Z,2.51
2019-02-16T01:09:02.688Z,2.52
2019-02-16T01:11:35.370Z,2.56
2019-02-16T01:14:06.976Z,2.56
2019-02-16T01:16:38.565Z,2.40
2019-02-16T01:19:10.113Z,2.36
2019-02-16T01:21:41.840Z,2.22
2019-02-16T01:24:13.399Z,2.03
2019-02-16T01:26:45.075Z,1.89
2019-02-16T01:29:16.604Z,1.91
2019-02-16T01:31:48.136Z,1.71
2019-02-16T01:34:19.663Z,1.64
2019-02-16T01:36:51.205Z,1.67
2019-02-16T01:39:22.793Z,1.78
2019-02-16T01:41:54.323Z,1.81
2019-02-16T01:44:25.855Z,1.80
2019-02-16T01:46:57.481Z,1.77
2019-02-16T01:49:29.004Z,1.92
2019-02-16T01:52:00.556Z,1.98
2019-02-16T01:54:32.283Z,1.98
2019-02-16T01:57:03.875Z,1.89
2019-02-16T01:59:35.500Z,1.95
2019-02-16T02:02:07.030Z,1.97
2019-02-16T02:04:38.550Z,2.09
2019-02-16T02:07:10.100Z,2.00
2019-02-16T02:09:41.651Z,2.09
2019-02-16T02:12:13.253Z,2.17
2019-02-16T02:14:44.761Z,1.99
2019-02-16T02:17:16.349Z,1.85
2019-02-16T02:19:48.049Z,1.88
2019-02-16T02:22:19.661Z,1.74
2019-02-16T02:24:51.271Z,1.64
2019-02-16T02:27:22.894Z,1.68
2019-02-16T02:29:54.586Z,1.68
2019-02-16T02:32:26.118Z,1.63
2019-02-16T02:34:57.660Z,1.58
2019-02-16T02:37:29.179Z,1.61
2019-02-16T02:40:00.778Z,1.68
2019-02-16T02:42:32.310Z,1.67
2019-02-16T02:45:04.756Z,1.72
2019-02-16T02:47:36.782Z,1.83
2019-02-16T02:50:08.666Z,1.91
2019-02-16T02:52:40.156Z,1.90
2019-02-16T02:55:11.739Z,1.87
2019-02-16T02:57:43.348Z,1.71
2019-02-16T03:00:14.876Z,1.71
2019-02-16T03:02:46.425Z,1.78
2019-02-16T03:05:17.954Z,1.84
2019-02-16T03:07:49.745Z,1.89
2019-02-16T03:10:21.373Z,1.78
2019-02-16T03:12:52.962Z,1.77
2019-02-16T03:15:24.624Z,1.88
2019-02-16T03:17:56.256Z,1.91
2019-02-16T03:20:27.884Z,1.98
2019-02-16T03:23:20.171Z,1.97
2019-02-16T03:26:12.094Z,1.95
2019-02-16T03:28:57.707Z,1.89
2019-02-16T03:31:39.874Z,1.99
2019-02-16T03:34:34.226Z,1.92
2019-02-16T03:37:34.005Z,1.94
2019-02-16T03:40:09.621Z,1.95
2019-02-16T03:42:41.244Z,1.89
2019-02-16T03:45:12.755Z,1.89
2019-02-16T03:47:44.371Z,1.86
2019-02-16T03:50:15.913Z,1.78
2019-02-16T03:52:47.741Z,1.80
2019-02-16T03:55:19.273Z,1.71
2019-02-16T03:57:50.863Z,1.63
2019-02-16T04:00:22.442Z,1.68
2019-02-16T04:02:54.055Z,1.70
2019-02-16T04:05:25.653Z,1.69
2019-02-16T04:07:57.194Z,1.71
2019-02-16T04:10:28.798Z,1.64
2019-02-16T04:13:00.372Z,1.63
2019-02-16T04:15:31.985Z,1.64
2019-02-16T04:18:03.490Z,1.63
2019-02-16T04:20:35.029Z,1.55
2019-02-16T04:23:07.632Z,1.54
2019-02-16T04:25:39.168Z,1.46
2019-02-16T04:28:10.707Z,1.45
2019-02-16T04:30:42.288Z,1.44
2019-02-16T04:33:13.933Z,1.44
2019-02-16T04:35:45.524Z,1.53
2019-02-16T04:38:17.129Z,1.58
2019-02-16T04:40:48.706Z,1.60
2019-02-16T04:43:20.299Z,1.60
2019-02-16T04:45:51.901Z,1.56
2019-02-16T04:48:23.499Z,1.55
2019-02-16T04:50:55.026Z,1.57
2019-02-16T04:53:26.564Z,1.49
2019-02-16T04:55:58.166Z,1.54
2019-02-16T04:58:30.189Z,1.56
2019-02-16T05:01:01.944Z,1.57
2019-02-16T05:03:33.471Z,1.60
2019-02-16T05:06:05.020Z,1.66
2019-02-16T05:08:36.559Z,1.58
2019-02-16T05:11:09.168Z,1.65
2019-02-16T05:13:40.766Z,1.65
2019-02-16T05:16:12.376Z,1.71
2019-02-16T05:18:43.933Z,1.72
2019-02-16T05:21:15.528Z,1.67
2019-02-16T05:23:47.190Z,1.63
2019-02-16T05:26:18.788Z,1.66
2019-02-16T05:28:50.311Z,1.75
2019-02-16T05:31:21.989Z,1.73
2019-02-16T05:33:53.530Z,1.68
2019-02-16T05:36:25.159Z,1.62
2019-02-16T05:38:56.690Z,1.54
2019-02-16T05:41:28.225Z,1.42
2019-02-16T05:43:59.868Z,1.38
2019-02-16T05:46:31.427Z,1.36
2019-02-16T05:49:02.941Z,1.32
2019-02-16T05:51:34.543Z,1.32
2019-02-16T05:54:06.211Z,1.32
2019-02-16T05:56:37.798Z,1.37
2019-02-16T05:59:09.330Z,1.42
2019-02-16T06:01:40.934Z,1.43
2019-02-16T06:04:12.433Z,1.39
2019-02-16T06:06:43.955Z,1.50
2019-02-16T06:09:15.492Z,1.48
2019-02-16T06:11:47.068Z,1.50
2019-02-16T06:14:20.064Z,1.47
2019-02-16T06:16:51.597Z,1.44
2019-02-16T06:19:23.135Z,1.39
2019-02-16T06:21:55.734Z,1.37
2019-02-16T06:24:27.333Z,1.39
2019-02-16T06:26:59.459Z,1.33
2019-02-16T06:29:30.988Z,1.35
2019-02-16T06:32:02.576Z,1.34
2019-02-16T06:34:34.183Z,1.35
2019-02-16T06:37:07.372Z,1.37
2019-02-16T06:39:39.006Z,1.38
2019-02-16T06:42:11.061Z,1.50
2019-02-16T06:44:42.598Z,1.52
2019-02-16T06:47:14.319Z,1.64
2019-02-16T06:49:45.969Z,1.72
2019-02-16T06:52:17.591Z,1.79
2019-02-16T06:54:49.098Z,1.80
2019-02-16T06:57:25.075Z,1.85
2019-02-16T06:59:56.679Z,2.00
2019-02-16T07:02:29.656Z,2.13
2019-02-16T07:05:01.282Z,2.26
2019-02-16T07:07:32.892Z,2.31
2019-02-16T07:10:08.495Z,2.47
2019-02-16T07:12:40.028Z,2.56
2019-02-16T07:15:12.682Z,2.71
2019-02-16T07:17:45.933Z,2.63
2019-02-16T07:20:19.108Z,2.77
2019-02-16T07:22:50.644Z,2.94
2019-02-16T07:25:22.172Z,2.99
2019-02-16T07:27:53.715Z,3.22
2019-02-16T07:30:25.327Z,3.29
2019-02-16T07:32:56.911Z,3.43
2019-02-16T07:35:28.518Z,3.60
2019-02-16T07:38:00.026Z,3.70
2019-02-16T07:40:31.706Z,3.75
2019-02-16T07:43:03.373Z,3.77
2019-02-16T07:45:34.663Z,3.87
2019-02-16T07:48:19.796Z,3.95
2019-02-16T07:50:52.955Z,4.01
2019-02-16T07:53:31.335Z,4.10
2019-02-16T07:56:03.097Z,4.17
2019-02-16T07:58:52.468Z,4.34
2019-02-16T08:01:31.491Z,4.47
2019-02-16T08:04:07.477Z,4.51
2019-02-16T08:06:43.777Z,4.65
2019-02-16T08:09:29.167Z,4.78
2019-02-16T08:12:05.285Z,4.83
2019-02-16T08:14:38.466Z,4.82
2019-02-16T08:17:27.796Z,4.89
2019-02-16T08:20:01.050Z,5.09
2019-02-16T08:22:49.262Z,5.21
2019-02-16T08:25:28.236Z,5.26
2019-02-16T08:28:08.279Z,5.33
2019-02-16T08:30:44.742Z,5.44
2019-02-16T08:33:22.493Z,5.37
2019-02-16T08:35:56.561Z,5.35
2019-02-16T08:38:42.092Z,5.49
2019-02-16T08:41:21.181Z,5.52
2019-02-16T08:44:00.203Z,5.49
2019-02-16T08:46:48.774Z,5.58
2019-02-16T08:49:22.711Z,5.73
2019-02-16T08:51:55.928Z,5.68
2019-02-16T08:54:29.108Z,5.73
2019-02-16T08:57:08.463Z,5.89
2019-02-16T08:59:41.667Z,6.04
2019-02-16T09:02:30.006Z,6.20
2019-02-16T09:05:05.985Z,6.27
2019-02-16T09:07:44.907Z,6.45
2019-02-16T09:10:30.368Z,6.69
2019-02-16T09:13:03.680Z,6.70
2019-02-16T09:15:42.764Z,6.76
2019-02-16T09:18:15.939Z,6.63
2019-02-16T09:20:49.189Z,6.82
2019-02-16T09:23:31.420Z,6.98
2019-02-16T09:26:07.292Z,6.84
2019-02-16T09:28:47.819Z,6.99
2019-02-16T09:31:21.874Z,7.07
2019-02-16T09:33:55.988Z,7.06
2019-02-16T09:36:35.144Z,7.13
2019-02-16T09:39:11.404Z,7.35
2019-02-16T09:41:50.586Z,7.44
2019-02-16T09:44:24.316Z,7.51
2019-02-16T09:46:55.621Z,7.68
2019-02-16T09:49:28.897Z,7.78
2019-02-16T09:52:08.341Z,7.78
2019-02-16T09:54:41.571Z,8.10
2019-02-16T09:57:14.763Z,8.22
2019-02-16T09:59:50.634Z,8.35
2019-02-16T10:02:42.141Z,8.28
2019-02-16T10:05:31.346Z,8.38
2019-02-16T10:08:08.070Z,8.51
2019-02-16T10:10:47.249Z,8.58
2019-02-16T10:13:36.649Z,8.66
2019-02-16T10:16:25.958Z,8.68
2019-02-16T10:19:04.871Z,8.71
2019-02-16T10:21:38.049Z,8.92
2019-02-16T10:24:18.212Z,9.13
2019-02-16T10:27:07.997Z,9.20
2019-02-16T10:29:56.189Z,9.35
2019-02-16T10:32:45.497Z,9.41
2019-02-16T10:35:24.766Z,9.35
2019-02-16T10:37:56.383Z,9.56
2019-02-16T10:40:48.204Z,9.62
2019-02-16T10:43:37.763Z,9.77
2019-02-16T10:46:15.043Z,9.85
2019-02-16T10:48:51.447Z,9.88
2019-02-16T10:51:24.686Z,9.88
2019-02-16T10:53:57.937Z,10.06
2019-02-16T10:56:31.240Z,10.23
2019-02-16T10:59:21.484Z,10.28
2019-02-16T11:01:55.554Z,10.42
2019-02-16T11:04:37.650Z,10.54
2019-02-16T11:07:19.947Z,10.66
2019-02-16T11:10:02.309Z,10.75
2019-02-16T11:12:38.331Z,10.73
2019-02-16T11:15:26.379Z,10.90
2019-02-16T11:18:18.011Z,10.93
2019-02-16T11:20:49.741Z,10.99
2019-02-16T11:23:39.335Z,11.02
2019-02-16T11:26:15.739Z,11.19
2019-02-16T11:28:51.866Z,11.24
2019-02-16T11:31:25.369Z,11.29
2019-02-16T11:34:01.590Z,11.35
2019-02-16T11:36:34.872Z,11.48
2019-02-16T11:39:14.295Z,11.53
2019-02-16T11:41:56.292Z,11.65
2019-02-16T11:44:45.998Z,11.73
2019-02-16T11:47:19.223Z,11.78
2019-02-16T11:49:58.433Z,11.96
2019-02-16T11:52:47.935Z,12.10
2019-02-16T11:55:26.856Z,12.26
2019-02-16T11:58:02.909Z,12.28
2019-02-16T12:00:40.556Z,12.42
2019-02-16T12:03:31.986Z,12.55
2019-02-16T12:06:11.141Z,12.61
2019-02-16T12:08:44.326Z,12.57
2019-02-16T12:11:26.624Z,12.72
2019-02-16T12:14:07.358Z,12.81
2019-02-16T12:16:46.332Z,12.68
2019-02-16T12:19:23.368Z,12.85
2019-02-16T12:21:56.548Z,12.96
2019-02-16T12:24:38.594Z,13.15
2019-02-16T12:27:10.055Z,13.23
2019-02-16T12:29:48.130Z,13.24
2019-02-16T12:32:21.585Z,13.31
2019-02-16T12:34:54.750Z,13.37
2019-02-16T12:37:28.349Z,13.40
2019-02-16T12:39:59.656Z,13.46
2019-02-16T12:42:30.957Z,13.54
2019-02-16T12:45:21.362Z,13.66
2019-02-16T12:48:12.483Z,13.73
2019-02-16T12:50:48.627Z,13.78
2019-02-16T12:53:25.518Z,13.83
2019-02-16T12:55:59.709Z,13.90
2019-02-16T12:58:35.976Z,13.93
2019-02-16T13:01:14.737Z,14.08
2019-02-16T13:03:47.969Z,14.04
2019-02-16T13:06:24.055Z,14.00
2019-02-16T13:09:03.131Z,14.11
2019-02-16T13:11:50.830Z,14.18
2019-02-16T13:14:36.216Z,14.19
2019-02-16T13:17:10.447Z,14.25
2019-02-16T13:19:43.711Z,14.28
2019-02-16T13:22:19.726Z,14.35
2019-02-16T13:24:52.910Z,14.42
2019-02-16T13:27:35.112Z,14.44
2019-02-16T13:30:15.880Z,14.41
2019-02-16T13:32:49.146Z,14.38
2019-02-16T13:35:25.075Z,14.47
2019-02-16T13:38:08.351Z,14.56
2019-02-16T13:40:41.658Z,14.56
2019-02-16T13:43:22.858Z,14.65
2019-02-16T13:46:04.947Z,14.70
2019-02-16T13:48:40.836Z,14.70
2019-02-16T13:51:32.094Z,14.70
2019-02-16T13:54:13.942Z,14.77
2019-02-16T13:56:45.244Z,14.76
2019-02-16T13:59:18.574Z,14.79
2019-02-16T14:02:03.770Z,14.77
2019-02-16T14:04:36.961Z,14.84
2019-02-16T14:07:16.330Z,14.75
2019-02-16T14:10:05.950Z,14.79
2019-02-16T14:12:42.176Z,14.71
2019-02-16T14:15:18.171Z,14.78
2019-02-16T14:17:51.601Z,14.62
2019-02-16T14:20:23.116Z,14.71
2019-02-16T14:22:54.739Z,14.75
2019-02-16T14:25:31.182Z,14.77
2019-02-16T14:28:02.873Z,14.76
2019-02-16T14:30:35.060Z,14.70
2019-02-16T14:33:06.660Z,14.67
2019-02-16T14:35:39.273Z,14.65
2019-02-16T14:38:21.758Z,14.56
2019-02-16T14:40:54.168Z,14.51
2019-02-16T14:43:25.988Z,14.58
2019-02-16T14:45:57.598Z,14.59
2019-02-16T14:48:29.168Z,14.59
2019-02-16T14:51:01.522Z,14.48
2019-02-16T14:53:33.647Z,14.55
2019-02-16T14:56:05.390Z,14.54
2019-02-16T14:58:37.239Z,14.47
2019-02-16T15:01:08.866Z,14.37
2019-02-16T15:03:40.488Z,14.28
2019-02-16T15:06:12.025Z,14.34
2019-02-16T15:08:43.637Z,14.29
2019-02-16T15:11:15.322Z,14.32
2019-02-16T15:13:46.878Z,14.35
2019-02-16T15:16:18.528Z,14.34
2019-02-16T15:18:50.144Z,14.34
2019-02-16T15:21:21.942Z,14.38
2019-02-16T15:23:53.559Z,14.32
2019-02-16T15:26:28.704Z,14.31
2019-02-16T15:28:58.536Z,14.29
2019-02-16T15:31:30.091Z,14.27
2019-02-16T15:34:01.788Z,14.25
2019-02-16T15:36:33.298Z,14.22
2019-02-16T15:39:07.541Z,14.17
2019-02-16T15:41:40.710Z,14.11
2019-02-16T15:44:12.469Z,14.04
2019-02-16T15:46:44.007Z,13.99
2019-02-16T15:49:15.603Z,13.96
2019-02-16T15:51:47.154Z,13.89
2019-02-16T15:54:18.700Z,13.84
2019-02-16T15:56:51.022Z,13.77
2019-02-16T15:59:22.831Z,13.72
2019-02-16T16:01:54.492Z,13.69
2019-02-16T16:04:26.106Z,13.63
2019-02-16T16:06:57.796Z,13.60
2019-02-16T16:09:46.154Z,13.58
2019-02-16T16:12:28.425Z,13.50
2019-02-16T16:15:01.893Z,13.42
2019-02-16T16:17:51.506Z,13.36
2019-02-16T16:20:41.094Z,13.29
2019-02-16T16:23:30.489Z,13.19
2019-02-16T16:26:05.669Z,13.06
2019-02-16T16:28:42.489Z,12.96
2019-02-16T16:31:15.854Z,12.89
2019-02-16T16:34:01.572Z,12.86
2019-02-16T16:36:32.909Z,12.82
2019-02-16T16:39:06.551Z,12.76
2019-02-16T16:41:48.927Z,12.70
2019-02-16T16:44:40.649Z,12.61
2019-02-16T16:47:29.871Z,12.50
2019-02-16T16:50:18.588Z,12.42
2019-02-16T16:53:03.135Z,12.32
2019-02-16T16:55:36.380Z,12.22
2019-02-16T16:58:17.026Z,12.14
2019-02-16T17:01:06.252Z,12.07
2019-02-16T17:03:39.442Z,11.98
2019-02-16T17:06:25.892Z,11.90
2019-02-16T17:09:15.817Z,11.85
2019-02-16T17:11:51.799Z,11.77
2019-02-16T17:14:25.108Z,11.70
2019-02-16T17:17:23.293Z,11.61
2019-02-16T17:20:00.701Z,11.53
2019-02-16T17:22:32.100Z,11.41
2019-02-16T17:25:04.727Z,11.32
2019-02-16T17:27:54.282Z,11.26
2019-02-16T17:30:34.928Z,11.17
2019-02-16T17:33:08.503Z,11.08
2019-02-16T17:35:47.578Z,11.03
2019-02-16T17:38:36.047Z,11.01
2019-02-16T17:41:12.057Z,10.98
2019-02-16T17:43:47.783Z,10.91
2019-02-16T17:46:37.456Z,10.85
2019-02-16T17:49:25.787Z,10.70
2019-02-16T17:52:02.109Z,10.57
2019-02-16T17:54:39.918Z,10.46
2019-02-16T17:57:19.680Z,10.40
2019-02-16T17:59:53.596Z,10.33
2019-02-16T18:02:35.848Z,10.27
2019-02-16T18:05:10.402Z,10.23
2019-02-16T18:07:48.794Z,10.20
2019-02-16T18:10:27.318Z,10.14
2019-02-16T18:13:01.429Z,10.06
2019-02-16T18:15:38.096Z,9.99
2019-02-16T18:18:14.668Z,9.98
2019-02-16T18:20:50.678Z,9.96
2019-02-16T18:23:36.094Z,9.93
2019-02-16T18:26:07.392Z,9.90
2019-02-16T18:28:57.626Z,9.85
2019-02-16T18:31:47.204Z,9.82
2019-02-16T18:34:23.382Z,9.77
2019-02-16T18:37:00.628Z,9.72
2019-02-16T18:39:33.959Z,9.50
2019-02-16T18:42:23.556Z,9.42
2019-02-16T18:44:59.540Z,9.38
2019-02-16T18:47:32.752Z,9.37
2019-02-16T18:50:24.006Z,9.35
2019-02-16T18:52:58.406Z,9.41
2019-02-16T18:55:37.755Z,9.43
2019-02-16T18:58:13.881Z,9.47
2019-02-16T19:01:04.965Z,9.47
2019-02-16T19:03:40.985Z,9.51
2019-02-16T19:06:16.788Z,9.52
2019-02-16T19:08:49.955Z,9.54
2019-02-16T19:11:39.515Z,9.52
2019-02-16T19:14:27.822Z,9.55
2019-02-16T19:17:06.743Z,9.50
2019-02-16T19:19:39.913Z,9.54
2019-02-16T19:22:18.935Z,9.52
2019-02-16T19:24:54.842Z,9.52
2019-02-16T19:27:30.542Z,9.43
2019-02-16T19:30:19.811Z,9.39
2019-02-16T19:33:09.134Z,9.35
2019-02-16T19:35:59.299Z,9.30
2019-02-16T19:38:38.299Z,9.25
2019-02-16T19:41:20.390Z,9.22
2019-02-16T19:44:09.697Z,9.20
2019-02-16T19:46:50.259Z,9.17
2019-02-16T19:49:24.496Z,9.13
2019-02-16T19:52:09.707Z,9.12
2019-02-16T19:54:46.030Z,9.06
2019-02-16T19:57:26.715Z,8.91
2019-02-16T20:00:02.480Z,8.90
2019-02-16T20:02:36.271Z,8.86
2019-02-16T20:05:26.208Z,8.75
2019-02-16T20:08:01.492Z,8.73
2019-02-16T20:10:34.826Z,8.71
2019-02-16T20:13:08.007Z,8.69
2019-02-16T20:15:53.497Z,8.69
2019-02-16T20:18:32.707Z,8.66
2019-02-16T20:21:22.762Z,8.66
2019-02-16T20:24:11.362Z,8.67
2019-02-16T20:26:50.332Z,8.65
2019-02-16T20:29:35.919Z,8.62
2019-02-16T20:32:26.381Z,8.57
2019-02-16T20:35:20.841Z,8.51
2019-02-16T20:37:58.167Z,8.44
2019-02-16T20:40:31.461Z,8.48
2019-02-16T20:43:10.743Z,8.50
2019-02-16T20:45:49.892Z,8.50
2019-02-16T20:48:25.731Z,8.43
2019-02-16T20:51:07.616Z,8.30
2019-02-16T20:53:43.510Z,8.24
2019-02-16T20:56:19.167Z,8.12
2019-02-16T20:59:04.653Z,8.06
2019-02-16T21:01:46.669Z,8.01
2019-02-16T21:04:34.892Z,7.99
2019-02-16T21:07:09.736Z,7.97
2019-02-16T21:09:59.293Z,7.94
2019-02-16T21:12:49.239Z,7.90
2019-02-16T21:15:34.730Z,7.93
2019-02-16T21:18:24.059Z,7.92
2019-02-16T21:20:55.458Z,7.94
2019-02-16T21:23:44.876Z,7.82
2019-02-16T21:26:16.147Z,7.78
2019-02-16T21:29:05.402Z,7.78
2019-02-16T21:31:54.631Z,7.77
2019-02-16T21:34:30.784Z,7.76
2019-02-16T21:37:03.957Z,7.70
2019-02-16T21:39:39.877Z,7.58
2019-02-16T21:42:19.264Z,7.52
2019-02-16T21:44:52.423Z,7.48
2019-02-16T21:47:25.615Z,7.49
2019-02-16T21:49:59.758Z,7.49
2019-02-16T21:52:35.639Z,7.49
2019-02-16T21:55:09.215Z,7.48
2019-02-16T21:57:45.051Z,7.44
2019-02-16T22:00:28.381Z,7.42
2019-02-16T22:03:01.528Z,7.41
2019-02-16T22:05:46.654Z,7.41
2019-02-16T22:08:17.916Z,7.43
2019-02-16T22:11:00.232Z,7.42
2019-02-16T22:13:31.819Z,7.38
2019-02-16T22:16:04.476Z,7.33
2019-02-16T22:18:36.014Z,7.35
2019-02-16T22:21:08.522Z,7.37
2019-02-16T22:23:40.041Z,7.38
2019-02-16T22:26:11.644Z,7.30
2019-02-16T22:28:43.161Z,7.23
2019-02-16T22:31:14.757Z,7.13
2019-02-16T22:33:46.388Z,6.98
2019-02-16T22:36:17.888Z,6.94
2019-02-16T22:38:49.415Z,6.90
2019-02-16T22:41:20.909Z,6.79
2019-02-16T22:43:52.412Z,6.75
2019-02-16T22:46:23.989Z,6.72
2019-02-16T22:48:55.529Z,6.72
2019-02-16T22:51:27.096Z,6.75
2019-02-16T22:53:58.584Z,6.71
2019-02-16T22:56:30.183Z,6.61
2019-02-16T22:59:01.762Z,6.49
2019-02-16T23:01:33.262Z,6.37
2019-02-16T23:04:04.805Z,6.31
2019-02-16T23:06:36.389Z,6.26
2019-02-16T23:09:10.459Z,6.24
2019-02-16T23:11:42.058Z,6.26
2019-02-16T23:14:13.625Z,6.24
2019-02-16T23:16:45.212Z,6.21
2019-02-16T23:19:16.783Z,6.20
2019-02-16T23:21:48.340Z,6.13
2019-02-16T23:24:19.892Z,6.09
2019-02-16T23:26:51.487Z,5.92
2019-02-16T23:29:35.808Z,5.75
2019-02-16T23:32:07.334Z,5.75
2019-02-16T23:34:38.940Z,5.64
2019-02-16T23:37:10.539Z,5.62
2019-02-16T23:39:42.088Z,5.56
2019-02-16T23:42:13.616Z,5.54
2019-02-16T23:44:45.205Z,5.53
2019-02-16T23:47:16.801Z,5.52
2019-02-16T23:49:48.349Z,5.51
2019-02-16T23:52:19.876Z,5.53
2019-02-16T23:54:51.403Z,5.52
2019-02-16T23:57:22.963Z,5.44
2019-02-16T23:59:54.538Z,5.39
